Harnell Park, Minnesota
Current Conditions -  °F | °C
As of 5:55 PM on Wednesday 28 Jan 2015 (Local Time) from KDLH Reporting Station
Haze Haze  
Wind Chill: 24°   Ceiling: 1400
Heat Index: 29°   Visibility: 6mi
Dew Point: 22°   Wind: 5mph
Humidity: 75%   Direction: 200°SSW
Pressure: 29.82"   Gusts: NA
Location:  46.8859°N, 92.4258°W
Report Text: KDLH 282355Z 20004KT 6SM HZ OVC014 M02/M06 A2982 RMK AO2 SLP119 T10171056 11017 21039 53005
Loading
Personal Weather Stations






























Interactive Weather Map New forecast layout! Learn more

10-Day Weather Forecast

Advertisements
Track Severe Weather on mobile